Time;durP1;ratioP1;P1;durP2;ratioP2;P2;SDS_P1;SDS_P2;PMS_P1;PMS_P2;Temp;Humidity;BMP_temperature;BMP_pressure;BME280_temperature;BME280_humidity;BME280_pressure;Samples;Min_cycle;Max_cycle;Signal;HPM_P1;HPM_P2
2022/08/04 00:01:44;;;;;;;4.65;2.28;;;;;;;23.22;90.89;99692.09;4899032;29;20028;-82
2022/08/04 00:04:19;;;;;;;3.75;1.90;;;;;;;23.12;91.57;99682.19;4881585;29;20025;-82
2022/08/04 00:07:09;;;;;;;3.85;2.15;;;;;;;23.09;92.22;99687.91;4898843;29;20865;-82
2022/08/04 00:09:48;;;;;;;6.68;2.28;;;;;;;23.02;93.05;99674.03;4862961;29;20260;-81
2022/08/04 00:12:16;;;;;;;6.05;2.65;;;;;;;22.97;92.19;99670.84;4879854;29;20385;-81
2022/08/04 00:14:47;;;;;;;3.80;2.28;;;;;;;23.15;92.17;99682.78;4880115;29;20808;-82
2022/08/04 00:17:13;;;;;;;2.88;2.00;;;;;;;23.00;92.34;99662.44;4862898;29;20517;-81
2022/08/04 00:19:43;;;;;;;5.45;2.38;;;;;;;23.04;92.70;99685.59;4879089;29;20056;-81
2022/08/04 00:22:10;;;;;;;3.83;1.75;;;;;;;22.92;93.00;99678.53;4861312;29;20071;-81
2022/08/04 00:24:36;;;;;;;4.78;2.38;;;;;;;22.89;93.60;99686.94;4878098;29;20407;-81
2022/08/04 00:27:02;;;;;;;3.47;2.20;;;;;;;22.86;94.18;99683.66;4878229;29;20033;-81
2022/08/04 00:29:29;;;;;;;3.92;2.20;;;;;;;22.64;94.22;99653.97;4861392;29;20565;-81
2022/08/04 00:31:55;;;;;;;4.00;2.42;;;;;;;22.68;94.70;99672.56;4862212;29;20477;-81
2022/08/04 00:34:25;;;;;;;4.68;2.40;;;;;;;22.70;95.43;99681.41;4878903;29;20048;-81
2022/08/04 00:36:52;;;;;;;3.67;2.13;;;;;;;22.73;95.13;99683.88;4861582;29;20085;-82
2022/08/04 00:39:18;;;;;;;4.47;2.40;;;;;;;22.64;95.24;99679.25;4877485;29;20033;-81
2022/08/04 00:42:10;;;;;;;5.70;2.47;;;;;;;22.71;94.73;99688.56;4861020;29;20795;-82
2022/08/04 00:45:14;;;;;;;6.97;2.92;;;;;;;22.68;95.62;99693.41;4877575;29;20104;-81
2022/08/04 00:48:01;;;;;;;5.07;2.40;;;;;;;22.64;96.46;99697.34;4874505;29;20077;-81
2022/08/04 00:51:03;;;;;;;3.80;2.15;;;;;;;22.52;96.78;99699.25;4860408;29;20032;-81
2022/08/04 00:54:00;;;;;;;4.18;2.20;;;;;;;22.43;96.75;99705.47;4850515;29;20111;-81
2022/08/04 00:56:43;;;;;;;4.47;2.60;;;;;;;22.33;97.04;99703.69;4859419;29;20034;-81
2022/08/04 00:59:30;;;;;;;;;;;;;;;22.28;97.21;99703.22;4859125;29;20116;-81
2022/08/04 01:02:04;;;;;;;4.95;2.50;;;;;;;22.19;97.53;99694.00;4859520;29;20373;-81
2022/08/04 01:04:35;;;;;;;3.85;2.30;;;;;;;22.25;97.65;99706.19;4877185;29;20040;-82
2022/08/04 01:07:06;;;;;;;4.68;2.33;;;;;;;22.23;97.96;99706.31;4877181;29;20037;-81
2022/08/04 01:09:50;;;;;;;4.50;2.33;;;;;;;22.18;98.37;99705.84;4878598;29;20049;-81
2022/08/04 01:12:54;;;;;;;4.32;2.38;;;;;;;22.17;98.95;99704.13;4879244;29;20516;-82
2022/08/04 01:15:36;;;;;;;4.15;2.40;;;;;;;22.12;99.83;99709.09;4868846;29;20412;-82
2022/08/04 01:18:07;;;;;;;6.85;2.53;;;;;;;22.04;100.00;99714.31;4881427;29;20071;-82
2022/08/04 01:20:46;;;;;;;5.95;2.50;;;;;;;21.92;100.00;99704.47;4879248;29;20028;-82
2022/08/04 01:23:36;;;;;;;5.97;2.80;;;;;;;21.99;99.91;99719.25;4896549;29;20043;-82
2022/08/04 01:26:16;;;;;;;3.97;2.40;;;;;;;21.98;100.00;99720.22;4879740;29;20481;-81
2022/08/04 01:29:08;;;;;;;7.30;2.90;;;;;;;21.95;100.00;99706.94;4896641;29;20058;-81
2022/08/04 01:31:46;;;;;;;4.85;2.58;;;;;;;21.88;100.00;99705.72;4896577;29;20020;-81
2022/08/04 01:34:12;;;;;;;5.68;2.28;;;;;;;21.92;100.00;99709.91;4896061;29;20084;-81
2022/08/04 01:36:44;;;;;;;4.47;2.53;;;;;;;21.77;100.00;99698.50;4859986;29;20032;-81
2022/08/04 01:41:58;;;;;;;5.03;2.42;;;;;;;21.79;100.00;99709.22;4901924;29;20104;-81
2022/08/04 01:44:28;;;;;;;2.78;1.75;;;;;;;21.78;99.94;99718.28;4898089;29;20024;-81
2022/08/04 01:46:54;;;;;;;5.75;2.60;;;;;;;21.65;100.00;99685.06;4900098;29;20036;-81
2022/08/04 01:49:21;;;;;;;4.00;2.33;;;;;;;21.74;100.00;99717.69;4894139;29;20084;-81
2022/08/04 01:51:51;;;;;;;4.78;2.40;;;;;;;21.66;99.42;99703.06;4887057;29;20024;-82
2022/08/04 01:54:18;;;;;;;3.83;2.42;;;;;;;21.59;98.92;99696.44;4878735;29;20028;-81
2022/08/04 01:56:48;;;;;;;6.88;2.38;;;;;;;21.51;99.61;99697.06;4879168;29;20473;-82
2022/08/04 01:59:17;;;;;;;4.70;2.50;;;;;;;21.49;99.08;99695.47;4878666;29;20024;-81
2022/08/04 02:01:43;;;;;;;6.50;2.22;;;;;;;21.42;99.44;99688.81;4895871;29;20020;-81
2022/08/04 02:04:16;;;;;;;5.63;2.65;;;;;;;21.39;99.73;99684.53;4895350;29;20029;-81
2022/08/04 02:07:01;;;;;;;3.78;2.20;;;;;;;21.49;99.43;99711.69;4895176;29;20035;-81
2022/08/04 02:09:42;;;;;;;4.35;2.28;;;;;;;21.29;99.09;99688.97;4895050;29;20057;-81
2022/08/04 02:12:26;;;;;;;5.25;2.67;;;;;;;21.36;99.56;99713.69;4895368;29;20040;-81
2022/08/04 02:15:23;;;;;;;4.35;2.30;;;;;;;21.35;99.73;99706.56;4878681;29;20084;-82
2022/08/04 02:17:59;;;;;;;5.18;2.58;;;;;;;21.30;100.00;99706.09;4895159;29;20029;-81
2022/08/04 02:20:29;;;;;;;5.65;2.47;;;;;;;21.31;100.00;99713.19;4895546;29;20099;-81
2022/08/04 02:23:00;;;;;;;4.70;2.90;;;;;;;21.27;99.99;99709.03;4895721;29;20056;-81
2022/08/04 02:25:27;;;;;;;8.07;2.72;;;;;;;21.13;100.00;99698.47;4878219;29;20032;-81
2022/08/04 02:28:05;;;;;;;4.30;2.50;;;;;;;21.19;100.00;99709.66;4895153;29;20040;-81
2022/08/04 02:30:42;;;;;;;3.67;2.42;;;;;;;21.02;100.00;99680.38;4897984;29;20369;-81
2022/08/04 02:33:12;;;;;;;4.22;2.63;;;;;;;21.12;100.00;99702.16;4882005;29;20056;-82
2022/08/04 02:35:39;;;;;;;6.20;2.80;;;;;;;21.03;100.00;99686.66;4881892;29;20017;-81
2022/08/04 02:38:30;;;;;;;4.50;2.33;;;;;;;21.14;100.00;99700.16;4898654;29;20032;-81
2022/08/04 02:40:59;;;;;;;4.25;2.20;;;;;;;21.03;100.00;99692.94;4898410;29;20032;-82
2022/08/04 02:43:26;;;;;;;5.13;2.38;;;;;;;21.19;100.00;99697.94;4882353;29;20572;-81
2022/08/04 02:45:56;;;;;;;5.75;2.42;;;;;;;21.08;100.00;99689.84;4881599;29;20123;-81
2022/08/04 02:48:24;;;;;;;5.18;2.60;;;;;;;21.09;100.00;99699.72;4898352;29;20039;-81
2022/08/04 02:50:51;;;;;;;5.60;2.55;;;;;;;20.95;100.00;99687.25;4898810;29;20084;-81
2022/08/04 02:53:21;;;;;;;4.10;2.60;;;;;;;20.74;100.00;99660.06;4898904;29;20119;-81
2022/08/04 02:55:47;;;;;;;4.03;2.35;;;;;;;20.89;100.00;99699.41;4896256;29;20024;-81
2022/08/04 02:58:18;;;;;;;4.97;2.97;;;;;;;20.82;100.00;99691.94;4897615;29;20033;-81
2022/08/04 03:00:44;;;;;;;6.35;2.20;;;;;;;20.75;100.00;99683.44;4897908;29;20397;-81
2022/08/04 03:03:44;;;;;;;4.15;2.28;;;;;;;20.76;100.00;99695.97;4897250;29;20048;-81
2022/08/04 03:06:10;;;;;;;6.10;2.95;;;;;;;20.84;100.00;99709.72;4898737;29;20060;-82
2022/08/04 03:08:44;;;;;;;5.35;3.30;;;;;;;20.80;100.00;99704.69;4910115;29;20139;-81
2022/08/04 03:11:35;;;;;;;5.90;2.60;;;;;;;20.70;100.00;99696.47;4911132;29;20031;-81
2022/08/04 03:14:25;;;;;;;6.18;2.90;;;;;;;20.59;100.00;99693.72;4898763;29;20028;-81
2022/08/04 03:16:50;;;;;;;5.60;2.40;;;;;;;20.67;100.00;99712.88;4900782;29;20084;-81
2022/08/04 03:19:27;;;;;;;5.35;2.75;;;;;;;20.55;100.00;99692.25;4898519;29;20032;-82
2022/08/04 03:22:11;;;;;;;5.40;2.70;;;;;;;20.64;100.00;99706.91;4881296;29;20035;-81
2022/08/04 03:24:54;;;;;;;;;;;;;;;20.65;100.00;99709.47;4898844;29;20025;-82
2022/08/04 03:27:25;;;;;;;5.38;3.08;;;;;;;20.68;100.00;99703.81;4898260;29;19923;-81
2022/08/04 03:30:24;;;;;;;4.50;2.95;;;;;;;20.67;100.00;99702.06;4898047;29;20039;-81
2022/08/04 03:33:18;;;;;;;6.40;2.65;;;;;;;20.72;100.00;99705.28;4881474;29;20034;-82
2022/08/04 03:35:56;;;;;;;5.38;2.78;;;;;;;20.69;100.00;99694.72;4883496;29;20384;-82
2022/08/04 03:38:57;;;;;;;4.45;2.67;;;;;;;20.81;100.00;99704.56;4881482;29;20060;-81
2022/08/04 03:41:44;;;;;;;6.40;2.80;;;;;;;20.91;99.25;99710.97;4857122;29;20523;-82
2022/08/04 03:44:47;;;;;;;8.18;2.88;;;;;;;21.01;97.99;99718.38;4877577;29;20025;-82
2022/08/04 03:47:26;;;;;;;5.28;2.83;;;;;;;21.07;97.35;99720.59;4896578;29;20066;-82
2022/08/04 03:50:30;;;;;;;3.95;2.65;;;;;;;21.05;96.93;99722.56;4896664;29;20031;-81
2022/08/04 03:53:44;;;;;;;4.07;2.30;;;;;;;20.87;96.69;99698.66;4853067;29;20065;-82
2022/08/04 03:56:43;;;;;;;4.40;2.65;;;;;;;20.81;96.20;99715.38;4862231;29;20516;-81
2022/08/04 03:59:22;;;;;;;5.85;2.75;;;;;;;20.66;96.64;99711.19;4879957;29;20029;-81
2022/08/04 04:01:57;;;;;;;3.92;2.58;;;;;;;20.56;97.23;99710.19;4880300;29;20060;-82
2022/08/04 04:04:50;;;;;;;4.57;2.65;;;;;;;20.48;98.35;99709.91;4885115;29;20033;-81
2022/08/04 04:07:34;;;;;;;8.23;3.13;;;;;;;20.42;98.23;99713.09;4877873;29;20037;-81
2022/08/04 04:10:18;;;;;;;6.22;2.65;;;;;;;20.30;99.04;99713.19;4880193;29;20029;-81
2022/08/04 04:13:01;;;;;;;6.85;2.60;;;;;;;20.22;100.00;99704.81;4897360;29;20021;-82
2022/08/04 04:15:38;;;;;;;4.75;2.42;;;;;;;20.33;100.00;99724.63;4880600;29;20033;-81
2022/08/04 04:18:13;;;;;;;6.70;2.50;;;;;;;20.31;100.00;99721.16;4880791;29;20092;-82
2022/08/04 04:21:07;;;;;;;6.13;2.97;;;;;;;20.27;100.00;99726.94;4880802;29;20095;-81
2022/08/04 04:24:05;;;;;;;7.68;2.53;;;;;;;20.16;100.00;99713.38;4879016;29;20097;-81
2022/08/04 04:26:45;;;;;;;8.82;3.00;;;;;;;20.23;100.00;99728.16;4880177;29;20031;-81
2022/08/04 04:29:36;;;;;;;10.45;3.78;;;;;;;20.23;100.00;99731.69;4896462;29;20040;-82
2022/08/04 04:32:34;;;;;;;5.88;2.75;;;;;;;20.21;100.00;99722.88;4896573;29;20393;-81
2022/08/04 04:35:08;;;;;;;6.43;2.92;;;;;;;20.30;100.00;99729.38;4882018;29;20075;-82
2022/08/04 04:37:55;;;;;;;7.38;2.50;;;;;;;20.35;100.00;99729.91;4896922;29;20024;-82
2022/08/04 04:40:32;;;;;;;5.95;2.55;;;;;;;20.40;100.00;99720.47;4897456;29;20054;-81
2022/08/04 04:43:40;;;;;;;5.53;2.90;;;;;;;20.45;100.00;99709.28;4898890;29;20079;-81
2022/08/04 04:46:20;;;;;;;4.65;2.92;;;;;;;20.55;100.00;99713.88;4899414;29;20487;-81
2022/08/04 04:48:57;;;;;;;11.02;2.60;;;;;;;20.72;100.00;99732.31;4899258;29;20032;-82
2022/08/04 04:51:48;;;;;;;5.72;2.63;;;;;;;20.76;100.00;99733.81;4898507;29;20400;-82
2022/08/04 04:54:38;;;;;;;7.95;3.15;;;;;;;20.67;100.00;99722.88;4909549;29;20020;-81
2022/08/04 04:57:06;;;;;;;5.97;2.40;;;;;;;20.79;100.00;99738.97;4893726;29;20420;-82
2022/08/04 04:59:38;;;;;;;6.25;2.80;;;;;;;20.71;99.58;99724.31;4881370;29;20606;-82
2022/08/04 05:02:27;;;;;;;8.93;3.28;;;;;;;20.87;99.50;99747.34;4896243;29;20129;-81
2022/08/04 05:05:26;;;;;;;5.32;2.80;;;;;;;20.96;99.02;99734.94;4896450;29;20420;-81
2022/08/04 05:08:16;;;;;;;4.50;2.70;;;;;;;21.09;98.63;99745.69;4879851;29;20059;-82
2022/08/04 05:10:57;;;;;;;4.95;2.60;;;;;;;21.17;98.03;99743.22;4896425;29;20039;-82
2022/08/04 05:13:35;;;;;;;6.75;3.30;;;;;;;21.28;97.15;99744.09;4897806;29;20024;-81
2022/08/04 05:16:24;;;;;;;5.50;3.00;;;;;;;21.35;96.77;99748.00;4879827;29;20506;-82
2022/08/04 05:19:08;;;;;;;5.28;2.63;;;;;;;21.46;96.07;99739.88;4894681;29;20334;-82
2022/08/04 05:21:41;;;;;;;;;;;;;;;21.59;95.66;99750.56;4897213;29;20057;-82
2022/08/04 05:24:09;;;;;;;5.53;2.95;;;;;;;21.69;94.96;99752.41;4896500;29;20387;-82
2022/08/04 05:26:42;;;;;;;6.00;2.70;;;;;;;21.93;94.06;99757.66;4897046;29;20036;-82
2022/08/04 05:29:12;;;;;;;8.00;3.20;;;;;;;22.03;93.12;99736.94;4890147;29;20396;-81
2022/08/04 05:31:41;;;;;;;8.32;3.05;;;;;;;22.21;92.73;99754.34;4877258;29;20033;-81
2022/08/04 05:34:19;;;;;;;4.15;2.50;;;;;;;22.34;91.26;99749.63;4860613;29;20060;-82
2022/08/04 05:36:53;;;;;;;13.63;4.00;;;;;;;22.50;89.79;99750.06;4864905;29;20241;-82
2022/08/04 05:39:24;;;;;;;6.13;2.42;;;;;;;22.79;89.27;99767.41;4894655;29;20039;-81
2022/08/04 05:41:51;;;;;;;6.88;3.13;;;;;;;22.97;88.99;99744.09;4907320;29;20436;-82
2022/08/04 05:44:18;;;;;;;6.28;3.05;;;;;;;23.26;87.24;99755.97;4914947;29;20556;-82
2022/08/04 05:46:47;;;;;;;7.90;2.70;;;;;;;23.42;85.86;99759.06;4894771;29;20033;-81
2022/08/04 05:49:13;;;;;;;7.03;3.30;;;;;;;23.51;84.54;99759.25;4895577;29;20429;-82
2022/08/04 05:51:40;;;;;;;7.43;2.95;;;;;;;23.55;83.31;99747.09;4878782;29;20040;-82
2022/08/04 05:54:07;;;;;;;6.38;3.30;;;;;;;23.67;83.62;99759.56;4893170;29;20060;-82
2022/08/04 05:56:33;;;;;;;6.45;3.30;;;;;;;24.01;83.59;99763.69;4874825;29;20042;-81
2022/08/04 05:59:01;;;;;;;10.65;4.00;;;;;;;24.45;80.34;99774.88;4895801;29;20032;-81
2022/08/04 06:01:28;;;;;;;8.45;2.83;;;;;;;24.63;78.84;99759.56;4878946;29;20078;-82
2022/08/04 06:03:55;;;;;;;7.40;3.28;;;;;;;24.80;77.63;99777.03;4894689;29;20135;-82
2022/08/04 06:06:21;;;;;;;10.15;3.13;;;;;;;24.72;77.84;99759.72;4893597;29;20021;-81
2022/08/04 06:08:47;;;;;;;7.15;3.05;;;;;;;24.84;77.95;99783.91;4876651;29;20056;-81
2022/08/04 06:11:14;;;;;;;12.52;3.33;;;;;;;24.86;77.90;99773.72;4883238;29;20388;-81
2022/08/04 06:13:50;;;;;;;10.55;3.75;;;;;;;24.94;77.42;99767.56;4912538;29;20028;-81
2022/08/04 06:16:20;;;;;;;13.25;4.43;;;;;;;24.99;76.57;99757.94;4912879;29;20020;-82
2022/08/04 06:18:48;;;;;;;7.63;2.97;;;;;;;25.19;76.20;99775.94;4896759;29;20126;-82
2022/08/04 06:21:19;;;;;;;10.50;3.42;;;;;;;25.34;75.60;99768.16;4915946;29;20107;-82
2022/08/04 06:23:45;;;;;;;8.50;3.15;;;;;;;25.41;75.31;99770.16;4898391;29;20032;-82
2022/08/04 06:26:18;;;;;;;7.60;2.92;;;;;;;25.53;75.52;99768.97;4898896;29;20027;-81
2022/08/04 06:28:46;;;;;;;11.10;3.40;;;;;;;25.67;75.22;99767.59;4898467;29;20547;-81
2022/08/04 06:31:20;;;;;;;9.90;3.20;;;;;;;25.85;73.79;99771.22;4915268;29;20043;-81
2022/08/04 06:33:48;;;;;;;9.82;3.53;;;;;;;25.94;72.87;99773.94;4897355;29;20024;-81
2022/08/04 06:36:14;;;;;;;8.32;3.03;;;;;;;25.95;72.78;99763.84;4915094;29;20032;-82
2022/08/04 06:38:40;;;;;;;8.43;2.55;;;;;;;26.12;72.15;99770.38;4900775;29;20025;-82
2022/08/04 06:41:08;;;;;;;6.68;2.58;;;;;;;26.28;69.99;99781.44;4891527;29;20028;-82
2022/08/04 06:43:36;;;;;;;7.68;2.95;;;;;;;26.30;67.65;99761.22;4899626;29;20072;-82
2022/08/04 06:46:03;;;;;;;12.10;3.10;;;;;;;26.44;68.19;99777.00;4896856;29;20056;-81
2022/08/04 06:48:31;;;;;;;3.45;2.20;;;;;;;26.63;67.73;99776.88;4896926;29;20033;-82
2022/08/04 06:50:57;;;;;;;7.47;3.17;;;;;;;26.92;65.71;99784.81;4895304;29;20036;-82
2022/08/04 06:53:24;;;;;;;6.57;2.58;;;;;;;27.00;63.52;99758.41;4895108;29;20550;-83
2022/08/04 06:55:51;;;;;;;7.47;2.47;;;;;;;27.30;61.87;99784.41;4895788;29;20037;-82
2022/08/04 06:58:19;;;;;;;6.22;2.40;;;;;;;27.53;60.10;99777.38;4882451;29;20445;-82
2022/08/04 07:00:46;;;;;;;5.70;2.30;;;;;;;27.77;58.12;99779.38;4897807;29;20029;-83
2022/08/04 07:03:13;;;;;;;4.57;2.97;;;;;;;27.94;58.78;99787.50;4882171;29;20129;-82
2022/08/04 07:05:39;;;;;;;4.47;2.25;;;;;;;28.12;57.50;99769.09;4881693;29;20040;-83
2022/08/04 07:08:06;;;;;;;5.30;3.42;;;;;;;28.40;56.72;99776.00;4881238;29;20116;-83
2022/08/04 07:10:32;;;;;;;5.25;3.05;;;;;;;28.66;55.94;99769.56;4881667;29;20037;-82
2022/08/04 07:12:59;;;;;;;3.85;2.45;;;;;;;28.94;54.32;99766.31;4900659;29;20038;-82
2022/08/04 07:15:25;;;;;;;5.72;2.20;;;;;;;29.00;53.57;99772.97;4920199;29;20084;-83
2022/08/04 07:17:52;;;;;;;3.72;2.08;;;;;;;29.34;52.75;99785.44;4919338;29;20088;-83
2022/08/04 07:20:18;;;;;;;3.83;2.30;;;;;;;29.54;54.25;99785.91;4903856;29;20135;-83
2022/08/04 07:22:46;;;;;;;4.10;2.28;;;;;;;29.79;51.55;99784.81;4920258;29;20042;-82
2022/08/04 07:25:14;;;;;;;5.53;2.30;;;;;;;30.08;51.16;99767.72;4918455;29;20039;-83
2022/08/04 07:27:39;;;;;;;3.38;2.00;;;;;;;30.47;50.20;99769.41;4903526;29;20114;-82
2022/08/04 07:30:05;;;;;;;3.97;2.20;;;;;;;30.85;50.45;99784.06;4900888;29;20028;-83
2022/08/04 07:32:36;;;;;;;4.28;2.05;;;;;;;31.04;48.44;99760.72;4887991;29;20028;-83
2022/08/04 07:35:03;;;;;;;3.70;1.98;;;;;;;31.33;47.45;99766.28;4883846;29;20067;-83
2022/08/04 07:37:29;;;;;;;4.57;2.03;;;;;;;31.47;44.22;99774.53;4900972;29;20036;-82
2022/08/04 07:39:54;;;;;;;4.80;2.38;;;;;;;31.85;44.63;99781.69;4884322;29;20036;-83
2022/08/04 07:42:20;;;;;;;4.25;2.10;;;;;;;32.21;43.89;99765.19;4899594;29;20496;-83
2022/08/04 07:44:46;;;;;;;4.32;2.17;;;;;;;32.43;41.02;99786.25;4896925;29;20034;-83
2022/08/04 07:47:12;;;;;;;3.60;1.95;;;;;;;32.43;40.86;99772.47;4900856;29;20080;-83
2022/08/04 07:49:40;;;;;;;3.10;1.70;;;;;;;32.66;41.00;99784.16;4899940;29;20047;-84
2022/08/04 07:52:06;;;;;;;4.38;2.00;;;;;;;32.79;39.41;99773.25;4882660;29;20040;-83
2022/08/04 07:54:33;;;;;;;5.25;2.78;;;;;;;32.88;39.63;99788.59;4882319;29;20032;-83
2022/08/04 07:56:59;;;;;;;7.85;2.58;;;;;;;32.95;39.59;99794.25;4898183;29;20073;-83
2022/08/04 07:59:25;;;;;;;5.07;1.95;;;;;;;32.97;39.55;99789.34;4882147;29;20116;-83
2022/08/04 08:01:52;;;;;;;4.10;1.65;;;;;;;33.12;38.95;99779.97;4882545;29;20032;-83
2022/08/04 08:04:18;;;;;;;5.32;2.60;;;;;;;33.35;39.35;99791.59;4883454;29;20029;-83
2022/08/04 08:06:43;;;;;;;10.10;2.10;;;;;;;33.71;38.97;99760.25;4898743;29;20052;-84
2022/08/04 08:09:10;;;;;;;3.38;1.80;;;;;;;34.41;38.38;99789.28;4882761;29;20080;-84
2022/08/04 08:11:36;;;;;;;6.78;3.05;;;;;;;34.49;38.17;99772.53;4899373;29;20040;-84
2022/08/04 08:14:02;;;;;;;3.03;1.73;;;;;;;34.71;37.90;99767.66;4882349;29;20024;-83
2022/08/04 08:16:28;;;;;;;5.30;2.05;;;;;;;35.02;36.27;99778.13;4883116;29;20031;-83
2022/08/04 08:18:56;;;;;;;2.72;1.88;;;;;;;34.97;36.93;99770.50;4899803;29;20028;-83
2022/08/04 08:21:21;;;;;;;3.22;1.73;;;;;;;35.11;36.79;99774.94;4899815;29;20127;-82
2022/08/04 08:23:48;;;;;;;6.45;2.03;;;;;;;35.17;36.34;99785.19;4900406;29;20052;-83
2022/08/04 08:26:14;;;;;;;2.88;1.88;;;;;;;35.39;35.55;99783.91;4883141;29;20041;-83
2022/08/04 08:28:39;;;;;;;5.60;1.70;;;;;;;35.58;35.86;99771.97;4881340;29;20036;-83
2022/08/04 08:31:05;;;;;;;3.10;1.60;;;;;;;35.94;36.05;99787.22;4880798;29;20029;-83
2022/08/04 08:33:31;;;;;;;2.42;1.67;;;;;;;36.34;34.64;99775.78;4898055;29;20035;-82
2022/08/04 08:36:08;;;;;;;4.63;1.80;;;;;;;36.81;34.47;99785.53;4898558;29;20521;-83
2022/08/04 08:38:41;;;;;;;3.88;1.35;;;;;;;36.86;34.43;99775.47;4881362;29;20442;-83
2022/08/04 08:41:07;;;;;;;5.05;2.08;;;;;;;36.85;34.19;99793.19;4887307;29;20075;-84
2022/08/04 08:44:03;;;;;;;5.18;1.80;;;;;;;36.99;33.52;99782.84;4900944;29;20067;-84
2022/08/04 08:47:00;;;;;;;4.70;1.58;;;;;;;37.33;33.47;99785.16;4897071;29;20411;-83
2022/08/04 08:49:47;;;;;;;3.53;2.00;;;;;;;37.82;32.74;99785.13;4899500;29;20477;-83
2022/08/04 08:52:37;;;;;;;2.80;1.50;;;;;;;37.82;32.94;99762.91;4897745;29;20400;-82
2022/08/04 08:55:25;;;;;;;3.25;1.85;;;;;;;38.23;32.29;99787.22;4898149;29;20036;-83
2022/08/04 08:58:18;;;;;;;3.28;2.00;;;;;;;38.60;31.31;99786.06;4893646;29;20032;-83
2022/08/04 09:01:33;;;;;;;2.72;1.63;;;;;;;38.43;31.64;99787.78;4867620;29;20017;-84
2022/08/04 09:04:26;;;;;;;6.43;1.67;;;;;;;38.46;32.25;99787.31;4873766;29;20068;-83
2022/08/04 09:07:29;;;;;;;4.40;1.85;;;;;;;38.71;32.90;99784.44;4877032;29;20041;-83
2022/08/04 09:10:18;;;;;;;;;;;;;;;38.89;32.04;99781.56;4874842;29;20038;-83
2022/08/04 09:12:47;;;;;;;2.70;1.73;;;;;;;38.84;32.24;99776.72;4870869;29;20002;-83
2022/08/04 09:15:46;;;;;;;4.13;2.00;;;;;;;38.83;31.82;99783.38;4879461;29;20052;-83
2022/08/04 09:18:22;;;;;;;3.20;1.70;;;;;;;39.12;32.00;99770.53;4879760;29;20425;-83
2022/08/04 09:20:54;;;;;;;3.90;1.60;;;;;;;38.80;31.33;99780.25;4879572;29;20029;-84
2022/08/04 09:23:44;;;;;;;2.35;1.48;;;;;;;38.82;32.03;99770.56;4879432;29;20358;-84
2022/08/04 09:26:33;;;;;;;4.75;1.58;;;;;;;38.92;30.98;99781.94;4864576;29;20025;-84
2022/08/04 09:29:43;;;;;;;1.85;1.25;;;;;;;39.22;31.94;99771.66;4877965;29;20371;-84
2022/08/04 09:32:27;;;;;;;3.83;1.35;;;;;;;39.40;31.78;99776.25;4839847;29;20037;-84
2022/08/04 09:35:09;;;;;;;4.00;1.60;;;;;;;39.67;30.11;99766.34;4877464;29;20041;-84
2022/08/04 09:37:59;;;;;;;2.95;1.35;;;;;;;39.78;29.71;99775.78;4873434;29;20029;-82
2022/08/04 09:40:24;;;;;;;1.88;1.33;;;;;;;39.83;29.09;99776.75;4864774;29;20109;-84
2022/08/04 09:43:08;;;;;;;2.60;1.20;;;;;;;39.90;28.77;99780.28;4877930;29;20108;-83
2022/08/04 09:45:59;;;;;;;3.45;1.20;;;;;;;40.13;28.85;99774.66;4878641;29;20033;-83
2022/08/04 09:48:41;;;;;;;3.15;1.42;;;;;;;40.23;29.03;99774.84;4878050;29;20025;-84
2022/08/04 09:51:22;;;;;;;3.33;1.50;;;;;;;40.43;28.51;99768.91;4870527;29;20084;-83
2022/08/04 09:54:08;;;;;;;13.93;2.17;;;;;;;40.58;30.05;99778.38;4863218;29;20040;-84
2022/08/04 09:57:17;;;;;;;4.43;1.58;;;;;;;40.75;28.77;99774.81;4877266;29;20039;-82
2022/08/04 09:59:57;;;;;;;2.83;1.38;;;;;;;40.80;27.88;99755.38;4869570;29;20093;-82
2022/08/04 10:02:25;;;;;;;3.10;1.33;;;;;;;40.99;28.12;99757.69;4876645;29;20021;-83
2022/08/04 10:04:56;;;;;;;4.32;1.40;;;;;;;41.40;27.79;99762.03;4876558;29;20073;-84
2022/08/04 10:07:39;;;;;;;3.90;1.42;;;;;;;41.55;28.28;99767.91;4880554;29;20468;-83
2022/08/04 10:10:21;;;;;;;4.18;1.50;;;;;;;41.43;29.28;99761.53;4880065;29;20407;-83
2022/08/04 10:13:16;;;;;;;3.35;1.25;;;;;;;41.57;29.27;99748.91;4880915;29;20053;-83
2022/08/04 10:16:10;;;;;;;3.47;1.45;;;;;;;41.61;28.90;99750.09;4879281;29;20029;-83
2022/08/04 10:18:57;;;;;;;3.03;1.33;;;;;;;41.65;28.24;99751.28;4896607;29;20557;-84
2022/08/04 10:21:35;;;;;;;6.80;1.58;;;;;;;41.96;28.04;99742.25;4867954;29;20028;-83
2022/08/04 10:24:28;;;;;;;5.10;1.52;;;;;;;42.13;27.55;99751.41;4878641;29;20032;-82
2022/08/04 10:27:05;;;;;;;2.63;1.58;;;;;;;42.40;27.20;99749.53;4872759;29;20035;-83
2022/08/04 10:29:41;;;;;;;5.63;1.50;;;;;;;42.48;27.28;99743.47;4893700;29;20044;-84
2022/08/04 10:32:18;;;;;;;2.35;1.40;;;;;;;42.49;26.44;99742.34;4880391;29;20575;-83
2022/08/04 10:35:08;;;;;;;3.15;1.40;;;;;;;42.36;27.42;99744.72;4897367;29;20039;-84
2022/08/04 10:38:12;;;;;;;3.97;1.30;;;;;;;42.44;26.42;99739.50;4898979;29;20111;-82
2022/08/04 10:41:04;;;;;;;3.20;1.30;;;;;;;42.15;25.46;99745.53;4882871;29;20037;-83
2022/08/04 10:43:40;;;;;;;2.95;1.08;;;;;;;42.22;26.10;99738.66;4901592;29;20369;-83
2022/08/04 10:46:13;;;;;;;3.42;1.27;;;;;;;42.37;24.38;99740.81;4906392;29;20031;-82
2022/08/04 10:48:59;;;;;;;;;;;;;;;42.40;25.43;99732.75;4885264;29;20032;-83
2022/08/04 10:51:38;;;;;;;2.05;0.98;;;;;;;42.32;25.12;99735.97;4880916;29;20662;-83
2022/08/04 10:54:09;;;;;;;2.10;1.17;;;;;;;42.38;25.21;99729.34;4880814;29;20037;-83
2022/08/04 10:56:40;;;;;;;1.00;0.80;;;;;;;42.46;26.16;99728.88;4877006;29;20397;-83
2022/08/04 10:59:20;;;;;;;1.75;1.20;;;;;;;42.56;25.46;99720.59;4897759;29;20028;-84
2022/08/04 11:01:49;;;;;;;2.25;1.00;;;;;;;42.93;24.91;99735.56;4899663;29;20056;-83
2022/08/04 11:04:46;;;;;;;12.65;6.38;;;;;;;43.14;25.17;99725.41;4881364;29;20036;-84
2022/08/04 11:07:13;;;;;;;3.40;1.75;;;;;;;43.25;25.79;99729.13;4874589;29;20041;-84
2022/08/04 11:09:41;;;;;;;4.70;1.45;;;;;;;43.61;25.12;99731.09;4882134;29;20761;-83
2022/08/04 11:12:18;;;;;;;2.30;1.13;;;;;;;43.71;25.24;99726.38;4882939;29;20036;-84
2022/08/04 11:14:52;;;;;;;3.22;1.27;;;;;;;44.04;24.24;99714.78;4879058;29;20465;-84
2022/08/04 11:17:28;;;;;;;6.90;1.55;;;;;;;43.72;24.29;99718.81;4864132;29;20402;-84
2022/08/04 11:20:21;;;;;;;1.92;1.10;;;;;;;43.87;25.18;99722.53;4880274;29;20367;-82
2022/08/04 11:23:09;;;;;;;2.53;1.00;;;;;;;44.03;24.76;99726.28;4863351;29;20060;-82
2022/08/04 11:25:45;;;;;;;4.53;1.05;;;;;;;44.15;23.91;99724.09;4885951;29;20366;-82
2022/08/04 11:28:27;;;;;;;2.60;0.90;;;;;;;43.77;22.80;99721.63;4882233;29;20045;-83
2022/08/04 11:31:03;;;;;;;2.05;0.70;;;;;;;43.61;23.43;99714.28;4899947;29;20108;-82
2022/08/04 11:33:28;;;;;;;3.95;1.25;;;;;;;44.15;23.78;99724.09;4900271;29;20028;-82
2022/08/04 11:36:04;;;;;;;1.75;0.80;;;;;;;44.19;22.31;99713.97;4899790;29;20037;-83
2022/08/04 11:38:48;;;;;;;2.47;1.08;;;;;;;44.30;22.42;99715.75;4882948;29;20056;-83
2022/08/04 11:41:20;;;;;;;4.85;1.27;;;;;;;44.57;23.11;99710.75;4906606;29;20075;-82
2022/08/04 11:43:57;;;;;;;4.20;0.80;;;;;;;44.52;21.26;99712.72;4894282;29;20036;-82
2022/08/04 11:46:29;;;;;;;2.70;0.90;;;;;;;44.15;22.72;99704.44;4899616;29;20032;-82
2022/08/04 11:49:06;;;;;;;1.52;0.75;;;;;;;44.37;22.59;99721.94;4879000;29;20093;-83
2022/08/04 11:51:33;;;;;;;1.55;0.73;;;;;;;44.02;20.91;99696.56;4882487;29;20111;-83
2022/08/04 11:54:00;;;;;;;1.73;0.68;;;;;;;44.25;22.02;99707.28;4881831;29;20025;-82
2022/08/04 11:56:26;;;;;;;1.02;0.60;;;;;;;44.35;21.43;99701.75;4897500;29;20032;-83
2022/08/04 11:58:51;;;;;;;1.48;0.60;;;;;;;44.40;20.28;99701.75;4880698;29;20036;-82
2022/08/04 12:01:16;;;;;;;2.13;0.68;;;;;;;44.53;20.13;99706.84;4898392;29;20350;-82
2022/08/04 12:03:58;;;;;;;1.95;0.57;;;;;;;44.74;20.04;99707.72;4881632;29;20028;-81
2022/08/04 12:06:55;;;;;;;2.05;0.57;;;;;;;44.74;20.66;99702.94;4872282;29;20065;-83
2022/08/04 12:09:29;;;;;;;0.85;0.57;;;;;;;45.15;21.04;99701.88;4878597;29;20063;-84
2022/08/04 12:12:12;;;;;;;1.30;0.57;;;;;;;44.63;20.57;99690.00;4870298;29;20098;-83
2022/08/04 12:15:12;;;;;;;1.15;0.52;;;;;;;45.01;19.11;99699.88;4878549;29;20044;-82
2022/08/04 12:18:33;;;;;;;2.42;0.30;;;;;;;44.77;19.52;99699.59;4863667;29;20029;-83
2022/08/04 12:21:15;;;;;;;2.25;0.32;;;;;;;45.28;17.80;99698.47;4789505;29;20031;-83